sensor_id;sensor_type;location;lat;lon;timestamp;pressure;altitude;pressure_sealevel;temperature;humidity
74427;BME280;62859;53.906;27.430;2023-06-10T00:01:40;1011.1;;;19.2;41.6
74427;BME280;62859;53.906;27.430;2023-06-10T00:06:40;1011.2;;;19.2;41.4
74427;BME280;62859;53.906;27.430;2023-06-10T00:11:50;1011.2;;;19.1;41.2
74427;BME280;62859;53.906;27.430;2023-06-10T00:17:18;1011.2;;;19;41.1
74427;BME280;62859;53.906;27.430;2023-06-10T00:21:40;1011.2;;;19.1;41
74427;BME280;62859;53.906;27.430;2023-06-10T00:26:40;1011.2;;;19.1;40.7
74427;BME280;62859;53.906;27.430;2023-06-10T00:32:02;1011.3;;;19.1;40.4
74427;BME280;62859;53.906;27.430;2023-06-10T00:37:04;1011.2;;;19.1;40.2
74427;BME280;62859;53.906;27.430;2023-06-10T00:41:46;1011.2;;;19.1;39.6
74427;BME280;62859;53.906;27.430;2023-06-10T00:47:02;1011.1;;;19;39.5
74427;BME280;62859;53.906;27.430;2023-06-10T00:51:50;1011.1;;;19;39.4
74427;BME280;62859;53.906;27.430;2023-06-10T00:56:40;1011.1;;;19;39.2
74427;BME280;62859;53.906;27.430;2023-06-10T01:01:50;1011.1;;;19;39.3
74427;BME280;62859;53.906;27.430;2023-06-10T01:06:41;1011.2;;;18.9;39.1
74427;BME280;62859;53.906;27.430;2023-06-10T01:12:08;1011.3;;;18.9;39
74427;BME280;62859;53.906;27.430;2023-06-10T01:17:06;1011.4;;;18.9;38.8
74427;BME280;62859;53.906;27.430;2023-06-10T01:21:56;1011.4;;;18.8;38.8
74427;BME280;62859;53.906;27.430;2023-06-10T01:27:09;1011.5;;;18.8;38.8
74427;BME280;62859;53.906;27.430;2023-06-10T01:32:26;1011.5;;;18.7;38.9
74427;BME280;62859;53.906;27.430;2023-06-10T01:36:52;1011.5;;;18.5;39
74427;BME280;62859;53.906;27.430;2023-06-10T01:41:40;1011.6;;;18.3;39.4
74427;BME280;62859;53.906;27.430;2023-06-10T01:47:04;1011.6;;;18.3;39.6
74427;BME280;62859;53.906;27.430;2023-06-10T01:51:40;1011.7;;;18.4;39.4
74427;BME280;62859;53.906;27.430;2023-06-10T01:57:06;1011.7;;;18.4;39.1
74427;BME280;62859;53.906;27.430;2023-06-10T02:01:40;1011.8;;;18.3;38.9
74427;BME280;62859;53.906;27.430;2023-06-10T02:07:20;1011.8;;;18.2;39.1
74427;BME280;62859;53.906;27.430;2023-06-10T02:12:12;1011.9;;;18.1;39.2
74427;BME280;62859;53.906;27.430;2023-06-10T02:16:40;1011.9;;;18;39.3
74427;BME280;62859;53.906;27.430;2023-06-10T02:21:58;1012;;;18;39.4
74427;BME280;62859;53.906;27.430;2023-06-10T02:27:20;1012.1;;;18;39.5
74427;BME280;62859;53.906;27.430;2023-06-10T02:31:54;1012.2;;;18;39.3
74427;BME280;62859;53.906;27.430;2023-06-10T02:37:06;1012.2;;;18;39.2
74427;BME280;62859;53.906;27.430;2023-06-10T02:42:14;1012.2;;;17.9;39.2
74427;BME280;62859;53.906;27.430;2023-06-10T02:46:52;1012.2;;;17.9;39.2
74427;BME280;62859;53.906;27.430;2023-06-10T02:51:40;1012.2;;;18;39.1
74427;BME280;62859;53.906;27.430;2023-06-10T02:57:06;1012.2;;;17.9;39.1
74427;BME280;62859;53.906;27.430;2023-06-10T03:01:56;1012.2;;;17.9;39.1
74427;BME280;62859;53.906;27.430;2023-06-10T03:07:18;1012.2;;;17.8;39.2
74427;BME280;62859;53.906;27.430;2023-06-10T03:11:52;1012.3;;;17.7;39.2
74427;BME280;62859;53.906;27.430;2023-06-10T03:17:06;1012.3;;;17.6;39.3
74427;BME280;62859;53.906;27.430;2023-06-10T03:21:57;1012.2;;;17.7;39.2
74427;BME280;62859;53.906;27.430;2023-06-10T03:27:20;1012.3;;;17.7;38.9
74427;BME280;62859;53.906;27.430;2023-06-10T03:31:52;1012.3;;;17.7;38.7
74427;BME280;62859;53.906;27.430;2023-06-10T03:37:06;1012.3;;;17.8;38.5
74427;BME280;62859;53.906;27.430;2023-06-10T03:41:44;1012.3;;;17.8;38.4
74427;BME280;62859;53.906;27.430;2023-06-10T03:47:20;1012.3;;;17.9;38.2
74427;BME280;62859;53.906;27.430;2023-06-10T03:51:40;1012.4;;;17.9;38.1
74427;BME280;62859;53.906;27.430;2023-06-10T03:56:40;1012.4;;;17.9;38.2
74427;BME280;62859;53.906;27.430;2023-06-10T04:02:26;1012.3;;;17.9;38.2
74427;BME280;62859;53.906;27.430;2023-06-10T04:07:24;1012.4;;;17.9;38.1
74427;BME280;62859;53.906;27.430;2023-06-10T04:11:40;1012.4;;;18;38
74427;BME280;62859;53.906;27.430;2023-06-10T04:16:52;1012.3;;;17.9;38.1
74427;BME280;62859;53.906;27.430;2023-06-10T04:22:12;1012.3;;;17.9;38.3
74427;BME280;62859;53.906;27.430;2023-06-10T04:27:20;1012.4;;;17.8;38.5
74427;BME280;62859;53.906;27.430;2023-06-10T04:31:54;1012.4;;;17.9;38.5
74427;BME280;62859;53.906;27.430;2023-06-10T04:36:54;1012.4;;;17.9;38.6
74427;BME280;62859;53.906;27.430;2023-06-10T04:41:44;1012.5;;;18.1;38.6
74427;BME280;62859;53.906;27.430;2023-06-10T04:47:04;1012.5;;;18.1;38.4
74427;BME280;62859;53.906;27.430;2023-06-10T04:52:06;1012.6;;;18.1;38.5
74427;BME280;62859;53.906;27.430;2023-06-10T04:56:40;1012.6;;;18.1;38.9
74427;BME280;62859;53.906;27.430;2023-06-10T05:01:56;1012.7;;;18;39.3
74427;BME280;62859;53.906;27.430;2023-06-10T05:07:04;1012.7;;;18;39.6
74427;BME280;62859;53.906;27.430;2023-06-10T05:11:40;1012.7;;;18.1;39.9
74427;BME280;62859;53.906;27.430;2023-06-10T05:16:50;1012.7;;;18.1;40.6
74427;BME280;62859;53.906;27.430;2023-06-10T05:21:52;1012.7;;;18.2;40.8
74427;BME280;62859;53.906;27.430;2023-06-10T05:27:20;1012.6;;;18.2;41
74427;BME280;62859;53.906;27.430;2023-06-10T05:32:14;1012.6;;;18.3;41
74427;BME280;62859;53.906;27.430;2023-06-10T05:37:06;1012.7;;;18.3;40.8
74427;BME280;62859;53.906;27.430;2023-06-10T05:41:40;1012.7;;;18.5;40.4
74427;BME280;62859;53.906;27.430;2023-06-10T05:47:22;1012.7;;;18.6;40.2
74427;BME280;62859;53.906;27.430;2023-06-10T05:52:06;1012.7;;;18.8;40
74427;BME280;62859;53.906;27.430;2023-06-10T05:56:40;1012.7;;;19;39.9
74427;BME280;62859;53.906;27.430;2023-06-10T06:02:12;1012.7;;;19.1;39.8
74427;BME280;62859;53.906;27.430;2023-06-10T06:07:20;1012.6;;;19.2;39.9
74427;BME280;62859;53.906;27.430;2023-06-10T06:12:24;1012.7;;;19;39.9
74427;BME280;62859;53.906;27.430;2023-06-10T06:17:10;1012.7;;;18.9;40.4
74427;BME280;62859;53.906;27.430;2023-06-10T06:22:10;1012.8;;;18.8;41
74427;BME280;62859;53.906;27.430;2023-06-10T06:26:40;1012.7;;;18.9;41
74427;BME280;62859;53.906;27.430;2023-06-10T06:32:24;1012.7;;;19;40.8
74427;BME280;62859;53.906;27.430;2023-06-10T06:37:10;1012.8;;;19.1;40.6
74427;BME280;62859;53.906;27.430;2023-06-10T06:42:08;1012.8;;;19.3;40.4
74427;BME280;62859;53.906;27.430;2023-06-10T06:46:40;1012.8;;;19.5;40.3
74427;BME280;62859;53.906;27.430;2023-06-10T06:52:24;1012.9;;;19.6;39.9
74427;BME280;62859;53.906;27.430;2023-06-10T06:56:58;1012.9;;;19.6;40.1
74427;BME280;62859;53.906;27.430;2023-06-10T07:02:08;1012.9;;;19.7;40.1
74427;BME280;62859;53.906;27.430;2023-06-10T07:07:26;1012.9;;;19.9;40
74427;BME280;62859;53.906;27.430;2023-06-10T07:12:24;1012.9;;;20.1;39.6
74427;BME280;62859;53.906;27.430;2023-06-10T07:17:12;1013;;;20.1;39.4
74427;BME280;62859;53.906;27.430;2023-06-10T07:22:08;1013;;;20.2;39.4
74427;BME280;62859;53.906;27.430;2023-06-10T07:26:40;1013.1;;;20.4;39.4
74427;BME280;62859;53.906;27.430;2023-06-10T07:32:24;1013.2;;;20.5;39.3
74427;BME280;62859;53.906;27.430;2023-06-10T07:36:42;1013.1;;;20.7;39.4
74427;BME280;62859;53.906;27.430;2023-06-10T07:42:08;1013.1;;;20.9;39
74427;BME280;62859;53.906;27.430;2023-06-10T07:46:56;1013.1;;;21;38.8
74427;BME280;62859;53.906;27.430;2023-06-10T07:52:26;1013.2;;;21.3;38.4
74427;BME280;62859;53.906;27.430;2023-06-10T07:57:00;1013.1;;;21.6;37.6
74427;BME280;62859;53.906;27.430;2023-06-10T08:01:56;1013.2;;;21.7;37.2
74427;BME280;62859;53.906;27.430;2023-06-10T08:06:40;1013.2;;;21.9;36.9
74427;BME280;62859;53.906;27.430;2023-06-10T08:12:24;1013.3;;;22.1;36.6
74427;BME280;62859;53.906;27.430;2023-06-10T08:17:12;1013.3;;;22.5;36.2
74427;BME280;62859;53.906;27.430;2023-06-10T08:22:08;1013.2;;;22.9;35.1
74427;BME280;62859;53.906;27.430;2023-06-10T08:26:44;1013.2;;;23.3;34.4
74427;BME280;62859;53.906;27.430;2023-06-10T08:32:26;1013.3;;;23.6;33.6
74427;BME280;62859;53.906;27.430;2023-06-10T08:37:12;1013.3;;;24;32.8
74427;BME280;62859;53.906;27.430;2023-06-10T08:42:11;1013.3;;;24.5;31.9
74427;BME280;62859;53.906;27.430;2023-06-10T08:46:56;1013.3;;;24.7;31.2
74427;BME280;62859;53.906;27.430;2023-06-10T08:52:26;1013.3;;;25.1;30.9
74427;BME280;62859;53.906;27.430;2023-06-10T08:57:12;1013.3;;;25.5;29.9
74427;BME280;62859;53.906;27.430;2023-06-10T09:02:08;1013.4;;;25.6;29.6
74427;BME280;62859;53.906;27.430;2023-06-10T09:06:44;1013.4;;;25.7;29.3
74427;BME280;62859;53.906;27.430;2023-06-10T09:12:26;1013.4;;;25.9;28.5
74427;BME280;62859;53.906;27.430;2023-06-10T09:16:56;1013.5;;;26.1;28.3
74427;BME280;62859;53.906;27.430;2023-06-10T09:22:10;1013.5;;;26.3;27.7
74427;BME280;62859;53.906;27.430;2023-06-10T09:27:01;1013.5;;;26.5;27.1
74427;BME280;62859;53.906;27.430;2023-06-10T09:32:26;1013.5;;;26.6;26.8
74427;BME280;62859;53.906;27.430;2023-06-10T09:37:12;1013.5;;;26.8;27
74427;BME280;62859;53.906;27.430;2023-06-10T09:42:15;1013.6;;;26.8;26.4
74427;BME280;62859;53.906;27.430;2023-06-10T09:46:40;1013.6;;;26.8;26.4
74427;BME280;62859;53.906;27.430;2023-06-10T09:52:28;1013.6;;;26.6;26.3
74427;BME280;62859;53.906;27.430;2023-06-10T09:57:14;1013.5;;;26.7;26.3
74427;BME280;62859;53.906;27.430;2023-06-10T10:02:09;1013.5;;;26.9;25.8
74427;BME280;62859;53.906;27.430;2023-06-10T10:06:52;1013.5;;;27;25.7
74427;BME280;62859;53.906;27.430;2023-06-10T10:12:24;1013.5;;;27.3;25.2
74427;BME280;62859;53.906;27.430;2023-06-10T10:17:14;1013.5;;;27.5;24.6
74427;BME280;62859;53.906;27.430;2023-06-10T10:21:52;1013.5;;;27.6;24.6
74427;BME280;62859;53.906;27.430;2023-06-10T10:26:40;1013.6;;;27.5;24.5
74427;BME280;62859;53.906;27.430;2023-06-10T10:32:29;1013.5;;;27.7;24.2
74427;BME280;62859;53.906;27.430;2023-06-10T10:37:00;1013.5;;;28;23.6
74427;BME280;62859;53.906;27.430;2023-06-10T10:42:12;1013.6;;;28.3;22.7
74427;BME280;62859;53.906;27.430;2023-06-10T10:46:48;1013.5;;;28.9;22.2
74427;BME280;62859;53.906;27.430;2023-06-10T10:52:10;1013.5;;;29.1;21.9
74427;BME280;62859;53.906;27.430;2023-06-10T10:57:11;1013.4;;;29;22
74427;BME280;62859;53.906;27.430;2023-06-10T11:02:32;1013.5;;;29.2;22.1
74427;BME280;62859;53.906;27.430;2023-06-10T11:06:40;1013.4;;;29.3;21.7
74427;BME280;62859;53.906;27.430;2023-06-10T11:12:08;1013.5;;;29.3;21.6
74427;BME280;62859;53.906;27.430;2023-06-10T11:17:18;1013.5;;;29.3;21.5
74427;BME280;62859;53.906;27.430;2023-06-10T11:22:28;1013.5;;;29.5;21.5
74427;BME280;62859;53.906;27.430;2023-06-10T11:27:15;1013.4;;;29.7;21.1
74427;BME280;62859;53.906;27.430;2023-06-10T11:32:14;1013.5;;;29.6;20.6
74427;BME280;62859;53.906;27.430;2023-06-10T11:37:12;1013.4;;;29.6;20.6
74427;BME280;62859;53.906;27.430;2023-06-10T11:42:28;1013.4;;;29.6;20.5
74427;BME280;62859;53.906;27.430;2023-06-10T11:46:58;1013.5;;;29.3;20.1
74427;BME280;62859;53.906;27.430;2023-06-10T11:52:04;1013.6;;;29.1;19.9
74427;BME280;62859;53.906;27.430;2023-06-10T11:57:12;1013.5;;;29.1;20.5
74427;BME280;62859;53.906;27.430;2023-06-10T12:02:26;1013.5;;;29;20.6
74427;BME280;62859;53.906;27.430;2023-06-10T12:06:56;1013.5;;;28.8;20.6
74427;BME280;62859;53.906;27.430;2023-06-10T12:11:42;1013.5;;;28.7;20.4
74427;BME280;62859;53.906;27.430;2023-06-10T12:16:47;1013.6;;;28.9;20.4
74427;BME280;62859;53.906;27.430;2023-06-10T12:22:26;1013.6;;;28.9;20.3
74427;BME280;62859;53.906;27.430;2023-06-10T12:27:06;1013.6;;;28.7;20.5
74427;BME280;62859;53.906;27.430;2023-06-10T12:32:10;1013.5;;;28.7;20.7
74427;BME280;62859;53.906;27.430;2023-06-10T12:36:52;1013.6;;;28.7;20.8
74427;BME280;62859;53.906;27.430;2023-06-10T12:42:24;1013.5;;;28.6;21
74427;BME280;62859;53.906;27.430;2023-06-10T12:46:40;1013.6;;;28.6;21.2
74427;BME280;62859;53.906;27.430;2023-06-10T12:52:08;1013.5;;;28.8;20.8
74427;BME280;62859;53.906;27.430;2023-06-10T12:57:10;1013.5;;;28.8;20.8
74427;BME280;62859;53.906;27.430;2023-06-10T13:02:26;1013.6;;;28.9;20.7
74427;BME280;62859;53.906;27.430;2023-06-10T13:07:10;1013.7;;;28.9;20.7
74427;BME280;62859;53.906;27.430;2023-06-10T13:12:12;1013.6;;;29.1;20.8
74427;BME280;62859;53.906;27.430;2023-06-10T13:17:08;1013.6;;;29;20.6
74427;BME280;62859;53.906;27.430;2023-06-10T13:22:24;1013.6;;;28.7;21.1
74427;BME280;62859;53.906;27.430;2023-06-10T13:27:26;1013.6;;;28.7;21.1
74427;BME280;62859;53.906;27.430;2023-06-10T13:32:14;1013.6;;;28.5;21.4
74427;BME280;62859;53.906;27.430;2023-06-10T13:37:12;1013.6;;;28.5;21.4
74427;BME280;62859;53.906;27.430;2023-06-10T13:42:26;1013.6;;;28.5;21.4
74427;BME280;62859;53.906;27.430;2023-06-10T13:46:40;1013.7;;;28;21.6
74427;BME280;62859;53.906;27.430;2023-06-10T13:51:42;1013.6;;;28.1;21.7
74427;BME280;62859;53.906;27.430;2023-06-10T13:57:12;1013.7;;;28;21.5
74427;BME280;62859;53.906;27.430;2023-06-10T14:02:28;1013.7;;;27.8;21.8
74427;BME280;62859;53.906;27.430;2023-06-10T14:06:40;1013.7;;;27.7;21.9
74427;BME280;62859;53.906;27.430;2023-06-10T14:12:10;1013.7;;;27.3;21.9
74427;BME280;62859;53.906;27.430;2023-06-10T14:17:08;1013.7;;;27.1;22.4
74427;BME280;62859;53.906;27.430;2023-06-10T14:22:26;1013.7;;;27;22.4
74427;BME280;62859;53.906;27.430;2023-06-10T14:26:58;1013.7;;;26.7;22.6
74427;BME280;62859;53.906;27.430;2023-06-10T14:31:42;1013.7;;;26.7;22.5
74427;BME280;62859;53.906;27.430;2023-06-10T14:37:10;1013.6;;;26.4;22.8
74427;BME280;62859;53.906;27.430;2023-06-10T14:42:12;1013.5;;;26.3;23
74427;BME280;62859;53.906;27.430;2023-06-10T14:46:58;1013.5;;;26.3;23.1
74427;BME280;62859;53.906;27.430;2023-06-10T14:51:42;1013.5;;;26.2;23.2
74427;BME280;62859;53.906;27.430;2023-06-10T14:57:12;1013.4;;;26.2;23.2
74427;BME280;62859;53.906;27.430;2023-06-10T15:02:24;1013.4;;;26.2;23
74427;BME280;62859;53.906;27.430;2023-06-10T15:06:40;1013.4;;;26.3;23
74427;BME280;62859;53.906;27.430;2023-06-10T15:12:24;1013.5;;;26.3;23
74427;BME280;62859;53.906;27.430;2023-06-10T15:17:10;1013.5;;;26.1;23.2
74427;BME280;62859;53.906;27.430;2023-06-10T15:22:26;1013.4;;;25.9;23.5
74427;BME280;62859;53.906;27.430;2023-06-10T15:26:58;1013.5;;;25.7;23.1
74427;BME280;62859;53.906;27.430;2023-06-10T15:32:24;1013.6;;;25.5;23.2
74427;BME280;62859;53.906;27.430;2023-06-10T15:37:10;1013.6;;;25.2;23.2
74427;BME280;62859;53.906;27.430;2023-06-10T15:42:24;1013.7;;;25.1;23.4
74427;BME280;62859;53.906;27.430;2023-06-10T15:46:52;1013.7;;;25.1;23.5
74427;BME280;62859;53.906;27.430;2023-06-10T15:52:22;1013.6;;;24.9;23.7
74427;BME280;62859;53.906;27.430;2023-06-10T15:57:08;1013.7;;;24.7;23.9
74427;BME280;62859;53.906;27.430;2023-06-10T16:02:24;1013.8;;;24.5;24.1
74427;BME280;62859;53.906;27.430;2023-06-10T16:06:52;1013.9;;;24.4;24.2
74427;BME280;62859;53.906;27.430;2023-06-10T16:12:06;1013.9;;;24.3;24.3
74427;BME280;62859;53.906;27.430;2023-06-10T16:17:10;1014;;;24.1;24.4
74427;BME280;62859;53.906;27.430;2023-06-10T16:22:24;1014;;;23.9;24.1
74427;BME280;62859;53.906;27.430;2023-06-10T16:27:26;1014.1;;;23.9;23.8
74427;BME280;62859;53.906;27.430;2023-06-10T16:32:26;1014.1;;;23.8;23.6
74427;BME280;62859;53.906;27.430;2023-06-10T16:37:06;1014.2;;;23.8;23.4
74427;BME280;62859;53.906;27.430;2023-06-10T16:42:24;1014.3;;;23.7;23.5
74427;BME280;62859;53.906;27.430;2023-06-10T16:46:52;1014.3;;;23.5;23.6
74427;BME280;62859;53.906;27.430;2023-06-10T16:52:26;1014.3;;;23.4;23.9
74427;BME280;62859;53.906;27.430;2023-06-10T16:57:12;1014.3;;;23.3;24
74427;BME280;62859;53.906;27.430;2023-06-10T17:02:24;1014.3;;;23.3;24.1
74427;BME280;62859;53.906;27.430;2023-06-10T17:06:40;1014.3;;;23.2;24.1
74427;BME280;62859;53.906;27.430;2023-06-10T17:12:26;1014.3;;;23.1;24.3
74427;BME280;62859;53.906;27.430;2023-06-10T17:17:10;1014.4;;;23;24.6
74427;BME280;62859;53.906;27.430;2023-06-10T17:22:24;1014.4;;;23;24.8
74427;BME280;62859;53.906;27.430;2023-06-10T17:26:40;1014.5;;;22.9;24.5
74427;BME280;62859;53.906;27.430;2023-06-10T17:32:24;1014.6;;;22.7;24.6
74427;BME280;62859;53.906;27.430;2023-06-10T17:36:42;1014.5;;;22.7;24.7
74427;BME280;62859;53.906;27.430;2023-06-10T17:42:24;1014.6;;;22.6;24.9
74427;BME280;62859;53.906;27.430;2023-06-10T17:46:40;1014.7;;;22.5;24.8
74427;BME280;62859;53.906;27.430;2023-06-10T17:52:28;1014.8;;;22.4;25.1
74427;BME280;62859;53.906;27.430;2023-06-10T17:57:12;1014.9;;;22.3;25.3
74427;BME280;62859;53.906;27.430;2023-06-10T18:02:28;1015;;;22.2;25.6
74427;BME280;62859;53.906;27.430;2023-06-10T18:06:52;1015;;;22;25.4
74427;BME280;62859;53.906;27.430;2023-06-10T18:12:28;1015.1;;;21.9;25.7
74427;BME280;62859;53.906;27.430;2023-06-10T18:17:10;1015.2;;;21.8;26
74427;BME280;62859;53.906;27.430;2023-06-10T18:22:16;1015.2;;;21.7;26
74427;BME280;62859;53.906;27.430;2023-06-10T18:26:52;1015.3;;;21.6;26.1
74427;BME280;62859;53.906;27.430;2023-06-10T18:32:28;1015.4;;;21.7;26.1
74427;BME280;62859;53.906;27.430;2023-06-10T18:37:10;1015.5;;;21.6;26.2
74427;BME280;62859;53.906;27.430;2023-06-10T18:42:24;1015.5;;;21.5;26.3
74427;BME280;62859;53.906;27.430;2023-06-10T18:46:40;1015.6;;;21.4;26.5
74427;BME280;62859;53.906;27.430;2023-06-10T18:52:28;1015.7;;;21.3;26.7
74427;BME280;62859;53.906;27.430;2023-06-10T18:57:00;1015.8;;;21.2;26.8
74427;BME280;62859;53.906;27.430;2023-06-10T19:02:24;1015.8;;;21.1;27.1
74427;BME280;62859;53.906;27.430;2023-06-10T19:06:40;1015.8;;;21;27.3
74427;BME280;62859;53.906;27.430;2023-06-10T19:12:26;1015.9;;;20.9;27.4
74427;BME280;62859;53.906;27.430;2023-06-10T19:17:10;1015.9;;;20.9;27.4
74427;BME280;62859;53.906;27.430;2023-06-10T19:22:24;1015.9;;;20.8;27.6
74427;BME280;62859;53.906;27.430;2023-06-10T19:26:52;1015.9;;;20.7;27.8
74427;BME280;62859;53.906;27.430;2023-06-10T19:32:24;1015.9;;;20.6;27.8
74427;BME280;62859;53.906;27.430;2023-06-10T19:37:06;1016;;;20.6;28
74427;BME280;62859;53.906;27.430;2023-06-10T19:42:16;1016;;;20.5;28.2
74427;BME280;62859;53.906;27.430;2023-06-10T19:47:20;1016;;;20.3;28.4
74427;BME280;62859;53.906;27.430;2023-06-10T19:52:26;1016;;;20.2;28.6
74427;BME280;62859;53.906;27.430;2023-06-10T19:57:12;1016.1;;;20.2;28.5
74427;BME280;62859;53.906;27.430;2023-06-10T20:02:22;1016;;;20.1;28.5
74427;BME280;62859;53.906;27.430;2023-06-10T20:07:20;1016.1;;;20.1;28.5
74427;BME280;62859;53.906;27.430;2023-06-10T20:12:28;1016.1;;;20;28.6
74427;BME280;62859;53.906;27.430;2023-06-10T20:17:06;1016.1;;;19.9;28.6
74427;BME280;62859;53.906;27.430;2023-06-10T20:22:08;1016.1;;;19.9;28.6
74427;BME280;62859;53.906;27.430;2023-06-10T20:26:40;1016.2;;;19.6;28.9
74427;BME280;62859;53.906;27.430;2023-06-10T20:32:26;1016.2;;;19.6;29.1
74427;BME280;62859;53.906;27.430;2023-06-10T20:36:58;1016.2;;;19.6;29.2
74427;BME280;62859;53.906;27.430;2023-06-10T20:42:26;1016.2;;;19.6;29.2
74427;BME280;62859;53.906;27.430;2023-06-10T20:47:04;1016.2;;;19.5;29.3
74427;BME280;62859;53.906;27.430;2023-06-10T20:52:28;1016.2;;;19.4;29.3
74427;BME280;62859;53.906;27.430;2023-06-10T20:57:10;1016.2;;;19.3;29.6
74427;BME280;62859;53.906;27.430;2023-06-10T21:02:26;1016.3;;;19.2;29.7
74427;BME280;62859;53.906;27.430;2023-06-10T21:07:20;1016.4;;;19.1;29.9
74427;BME280;62859;53.906;27.430;2023-06-10T21:12:24;1016.4;;;18.9;30.1
74427;BME280;62859;53.906;27.430;2023-06-10T21:17:08;1016.5;;;18.9;30.2
74427;BME280;62859;53.906;27.430;2023-06-10T21:22:10;1016.5;;;18.8;30.3
74427;BME280;62859;53.906;27.430;2023-06-10T21:26:40;1016.5;;;18.8;30.4
74427;BME280;62859;53.906;27.430;2023-06-10T21:32:26;1016.5;;;18.7;30.5
74427;BME280;62859;53.906;27.430;2023-06-10T21:36:42;1016.6;;;18.7;30.6
74427;BME280;62859;53.906;27.430;2023-06-10T21:42:24;1016.6;;;18.5;30.8
74427;BME280;62859;53.906;27.430;2023-06-10T21:47:02;1016.6;;;18.4;31
74427;BME280;62859;53.906;27.430;2023-06-10T21:52:22;1016.6;;;18.3;31.1
74427;BME280;62859;53.906;27.430;2023-06-10T21:56:58;1016.6;;;18.2;31.4
74427;BME280;62859;53.906;27.430;2023-06-10T22:02:22;1016.6;;;18.1;31.6
74427;BME280;62859;53.906;27.430;2023-06-10T22:06:40;1016.7;;;18.1;31.6
74427;BME280;62859;53.906;27.430;2023-06-10T22:12:24;1016.7;;;18.1;31.6
74427;BME280;62859;53.906;27.430;2023-06-10T22:16:52;1016.7;;;18.1;31.8
74427;BME280;62859;53.906;27.430;2023-06-10T22:22:22;1016.7;;;18;32
74427;BME280;62859;53.906;27.430;2023-06-10T22:26:40;1016.7;;;17.9;32.1
74427;BME280;62859;53.906;27.430;2023-06-10T22:32:24;1016.8;;;17.7;32.4
74427;BME280;62859;53.906;27.430;2023-06-10T22:37:08;1016.8;;;17.7;32.6
74427;BME280;62859;53.906;27.430;2023-06-10T22:42:24;1016.8;;;17.7;32.7
74427;BME280;62859;53.906;27.430;2023-06-10T22:46:40;1016.8;;;17.6;32.9
74427;BME280;62859;53.906;27.430;2023-06-10T22:52:22;1016.8;;;17.5;33.1
74427;BME280;62859;53.906;27.430;2023-06-10T22:57:08;1016.8;;;17.5;33.1
74427;BME280;62859;53.906;27.430;2023-06-10T23:02:24;1016.8;;;17.4;33.4
74427;BME280;62859;53.906;27.430;2023-06-10T23:06:40;1016.8;;;17.3;33.7
74427;BME280;62859;53.906;27.430;2023-06-10T23:12:22;1016.8;;;17.2;33.9
74427;BME280;62859;53.906;27.430;2023-06-10T23:17:08;1016.8;;;17;34.3
74427;BME280;62859;53.906;27.430;2023-06-10T23:22:20;1016.8;;;17;34.4
74427;BME280;62859;53.906;27.430;2023-06-10T23:26:40;1016.8;;;16.9;34.6
74427;BME280;62859;53.906;27.430;2023-06-10T23:32:20;1016.7;;;16.9;34.8
74427;BME280;62859;53.906;27.430;2023-06-10T23:37:06;1016.8;;;16.9;34.8
74427;BME280;62859;53.906;27.430;2023-06-10T23:42:20;1016.8;;;16.9;35
74427;BME280;62859;53.906;27.430;2023-06-10T23:46:40;1016.7;;;16.9;34.9
74427;BME280;62859;53.906;27.430;2023-06-10T23:52:16;1016.8;;;16.8;35.1
74427;BME280;62859;53.906;27.430;2023-06-10T23:57:22;1016.7;;;16.8;35.3
